createdAt,value
2023-03-20T00:00:01.224Z,29.10
2023-03-20T00:02:29.419Z,29.77
2023-03-20T00:04:58.340Z,28.63
2023-03-20T00:07:27.478Z,28.27
2023-03-20T00:09:57.836Z,29.90
2023-03-20T00:12:29.674Z,28.60
2023-03-20T00:14:57.811Z,29.33
2023-03-20T00:17:27.281Z,29.23
2023-03-20T00:19:55.407Z,29.20
2023-03-20T00:22:24.286Z,29.17
2023-03-20T00:24:53.279Z,29.13
2023-03-20T00:27:21.465Z,30.70
2023-03-20T00:29:57.280Z,28.80
2023-03-20T00:32:25.577Z,27.27
2023-03-20T00:34:57.429Z,26.30
2023-03-20T00:37:25.697Z,27.60
2023-03-20T00:39:54.618Z,28.70
2023-03-20T00:42:24.060Z,26.93
2023-03-20T00:44:55.308Z,26.83
2023-03-20T00:47:27.260Z,26.63
2023-03-20T00:49:58.312Z,27.13
2023-03-20T00:52:27.360Z,27.47
2023-03-20T00:54:56.296Z,26.03
2023-03-20T00:57:27.507Z,26.67
2023-03-20T01:00:02.282Z,26.37
2023-03-20T01:02:32.230Z,26.50
2023-03-20T01:05:02.293Z,27.30
2023-03-20T01:07:31.159Z,25.67
2023-03-20T01:09:59.317Z,27.07
2023-03-20T01:12:28.493Z,26.70
2023-03-20T01:14:58.873Z,25.80
2023-03-20T01:17:30.358Z,25.70
2023-03-20T01:19:59.880Z,26.20
2023-03-20T01:22:28.087Z,25.97
2023-03-20T01:24:58.291Z,25.23
2023-03-20T01:27:27.298Z,25.30
2023-03-20T01:29:59.412Z,27.43
2023-03-20T01:32:27.923Z,26.03
2023-03-20T01:34:56.067Z,27.37
2023-03-20T01:37:29.243Z,26.90
2023-03-20T01:40:02.589Z,26.60
2023-03-20T01:42:34.300Z,25.07
2023-03-20T01:45:03.486Z,26.73
2023-03-20T01:47:33.398Z,25.57
2023-03-20T01:50:22.697Z,26.90
2023-03-20T01:52:59.636Z,26.30
2023-03-20T01:55:29.387Z,26.43
2023-03-20T01:58:05.472Z,25.33
2023-03-20T02:00:37.296Z,27.80
2023-03-20T02:03:09.504Z,28.90
2023-03-20T02:06:05.327Z,27.07
2023-03-20T02:08:55.140Z,28.17
2023-03-20T02:11:27.490Z,27.33
2023-03-20T02:13:59.516Z,29.03
2023-03-20T02:16:32.498Z,27.93
2023-03-20T02:19:25.335Z,28.60
2023-03-20T02:22:50.339Z,29.13
2023-03-20T02:25:52.200Z,28.73
2023-03-20T02:28:49.739Z,28.97
2023-03-20T02:31:43.849Z,28.20
2023-03-20T02:34:40.329Z,28.40
2023-03-20T02:37:47.347Z,28.80
2023-03-20T02:40:23.335Z,27.60
2023-03-20T02:43:00.386Z,27.73
2023-03-20T02:45:31.168Z,28.03
2023-03-20T02:48:28.384Z,27.83
2023-03-20T02:51:04.334Z,27.27
2023-03-20T02:53:44.424Z,28.37
2023-03-20T02:56:20.809Z,27.87
2023-03-20T02:58:53.789Z,28.37
2023-03-20T03:01:28.873Z,32.43
2023-03-20T03:04:02.192Z,43.23
2023-03-20T03:06:37.386Z,42.13
2023-03-20T03:09:12.137Z,30.67
2023-03-20T03:11:46.324Z,29.80
2023-03-20T03:14:20.551Z,30.00
2023-03-20T03:16:52.604Z,29.23
2023-03-20T03:19:25.216Z,29.00
2023-03-20T03:21:56.367Z,27.90
2023-03-20T03:24:42.470Z,29.00
2023-03-20T03:27:17.543Z,30.50
2023-03-20T03:29:53.352Z,29.47
2023-03-20T03:32:31.121Z,28.77
2023-03-20T03:35:02.091Z,28.50
2023-03-20T03:37:46.524Z,29.00
2023-03-20T03:40:23.389Z,29.87
2023-03-20T03:42:57.769Z,29.23
2023-03-20T03:45:32.771Z,30.27
2023-03-20T03:48:07.437Z,30.23
2023-03-20T03:50:48.826Z,29.37
2023-03-20T03:53:23.792Z,29.87
2023-03-20T03:56:02.732Z,29.00
2023-03-20T03:58:37.766Z,29.57
2023-03-20T04:01:12.366Z,29.13
2023-03-20T04:03:44.559Z,29.37
2023-03-20T04:06:19.358Z,30.10
2023-03-20T04:08:48.368Z,29.33
2023-03-20T04:11:19.550Z,30.13
2023-03-20T04:13:52.396Z,29.00
2023-03-20T04:16:23.672Z,30.43
2023-03-20T04:18:53.399Z,29.93
2023-03-20T04:21:21.687Z,29.27
2023-03-20T04:23:54.356Z,28.00
2023-03-20T04:26:25.779Z,29.50
2023-03-20T04:28:55.349Z,29.47
2023-03-20T04:31:42.507Z,29.63
2023-03-20T04:34:36.757Z,30.20
2023-03-20T04:37:12.384Z,30.83
2023-03-20T04:39:50.212Z,28.90
2023-03-20T04:42:22.360Z,30.47
2023-03-20T04:44:54.041Z,30.10
2023-03-20T04:47:22.927Z,29.70
2023-03-20T04:49:52.236Z,30.13
2023-03-20T04:52:21.483Z,30.30
2023-03-20T04:54:49.648Z,31.23
2023-03-20T04:57:22.383Z,32.43
2023-03-20T04:59:53.394Z,32.53
2023-03-20T05:02:21.558Z,30.83
2023-03-20T05:04:50.408Z,31.50
2023-03-20T05:07:19.421Z,32.07
2023-03-20T05:10:01.377Z,31.70
2023-03-20T05:12:32.169Z,31.30
2023-03-20T05:15:25.798Z,33.90
2023-03-20T05:18:13.217Z,34.63
2023-03-20T05:21:02.933Z,32.67
2023-03-20T05:23:50.300Z,32.70
2023-03-20T05:26:36.493Z,35.00
2023-03-20T05:29:23.369Z,34.37
2023-03-20T05:32:12.804Z,33.40
2023-03-20T05:35:16.477Z,33.57
2023-03-20T05:37:51.989Z,35.17
2023-03-20T05:40:50.366Z,34.03
2023-03-20T05:43:36.600Z,34.67
2023-03-20T05:46:20.437Z,33.23
2023-03-20T05:49:07.792Z,33.10
2023-03-20T05:51:58.823Z,34.67
2023-03-20T05:54:39.046Z,34.47
2023-03-20T05:57:22.842Z,36.50
2023-03-20T06:00:01.459Z,38.17
2023-03-20T06:02:41.712Z,39.67
2023-03-20T06:05:31.321Z,38.73
2023-03-20T06:08:03.628Z,35.43
2023-03-20T06:10:32.257Z,34.13
2023-03-20T06:13:01.263Z,35.00
2023-03-20T06:15:30.796Z,35.77
2023-03-20T06:18:08.441Z,36.27
2023-03-20T06:20:38.318Z,35.87
2023-03-20T06:23:06.744Z,37.70
2023-03-20T06:25:36.990Z,36.77
2023-03-20T06:28:08.325Z,34.90
2023-03-20T06:30:36.842Z,34.57
2023-03-20T06:33:08.776Z,29.03
2023-03-20T06:35:53.049Z,27.40
2023-03-20T06:38:21.488Z,25.60
2023-03-20T06:40:50.578Z,26.10
2023-03-20T06:43:19.459Z,25.93
2023-03-20T06:45:52.857Z,26.23
2023-03-20T06:48:27.437Z,25.60
2023-03-20T06:50:57.379Z,26.20
2023-03-20T06:53:32.419Z,26.87
2023-03-20T06:56:07.084Z,26.43
2023-03-20T06:58:38.578Z,26.93
2023-03-20T07:01:11.296Z,26.40
2023-03-20T07:03:40.214Z,25.67
2023-03-20T07:06:12.297Z,26.27
2023-03-20T07:08:42.899Z,26.43
2023-03-20T07:11:11.177Z,27.07
2023-03-20T07:13:39.613Z,28.33
2023-03-20T07:16:18.740Z,27.20
2023-03-20T07:18:47.954Z,28.00
2023-03-20T07:21:24.872Z,28.23
2023-03-20T07:23:53.116Z,27.33
2023-03-20T07:26:21.425Z,28.83
2023-03-20T07:28:49.712Z,29.57
2023-03-20T07:31:28.859Z,29.57
2023-03-20T07:34:12.078Z,28.97
2023-03-20T07:36:43.257Z,29.67
2023-03-20T07:39:14.394Z,30.13
2023-03-20T07:41:48.448Z,29.53
2023-03-20T07:44:26.803Z,29.87
2023-03-20T07:46:55.294Z,29.03
2023-03-20T07:49:24.684Z,28.17
2023-03-20T07:51:56.396Z,29.37
2023-03-20T07:54:28.486Z,30.13
2023-03-20T07:56:59.132Z,28.77
2023-03-20T07:59:27.614Z,29.83
2023-03-20T08:01:55.908Z,27.93
2023-03-20T08:04:24.271Z,28.60
2023-03-20T08:06:53.883Z,29.03
2023-03-20T08:09:22.446Z,29.60
2023-03-20T08:11:52.245Z,28.90
2023-03-20T08:14:20.439Z,29.17
2023-03-20T08:16:56.291Z,30.70
2023-03-20T08:19:31.462Z,29.13
2023-03-20T08:22:01.491Z,28.40
2023-03-20T08:24:33.223Z,29.13
2023-03-20T08:27:01.471Z,28.50
2023-03-20T08:29:29.808Z,29.67
2023-03-20T08:31:58.490Z,29.20
2023-03-20T08:34:27.128Z,29.97
2023-03-20T08:36:55.676Z,30.13
2023-03-20T08:39:25.203Z,30.43
2023-03-20T08:41:53.572Z,29.67
2023-03-20T08:44:21.837Z,28.90
2023-03-20T08:46:50.103Z,27.43
2023-03-20T08:49:18.440Z,25.00
2023-03-20T08:51:46.754Z,26.10
2023-03-20T08:54:16.338Z,26.37
2023-03-20T08:56:48.854Z,22.90
2023-03-20T08:59:17.235Z,23.73
2023-03-20T09:01:49.689Z,24.00
2023-03-20T09:04:18.933Z,23.67
2023-03-20T09:06:47.222Z,22.57
2023-03-20T09:09:18.560Z,23.30
2023-03-20T09:11:48.502Z,22.20
2023-03-20T09:14:18.963Z,21.73
2023-03-20T09:16:47.282Z,23.03
2023-03-20T09:19:16.481Z,19.60
2023-03-20T09:21:44.805Z,21.83
2023-03-20T09:24:13.141Z,20.40
2023-03-20T09:26:41.519Z,20.30
2023-03-20T09:29:11.103Z,17.73
2023-03-20T09:31:39.298Z,17.73
2023-03-20T09:34:07.650Z,18.53
2023-03-20T09:36:35.840Z,18.03
2023-03-20T09:39:05.232Z,18.43
2023-03-20T09:41:49.009Z,17.13
2023-03-20T09:44:40.494Z,16.97
2023-03-20T09:47:20.977Z,17.33
2023-03-20T09:50:07.837Z,17.23
2023-03-20T09:52:39.857Z,16.40
2023-03-20T09:55:17.200Z,16.47
2023-03-20T09:57:49.617Z,17.33
2023-03-20T10:00:24.249Z,16.80
2023-03-20T10:02:57.499Z,18.03
2023-03-20T10:05:29.154Z,17.90
2023-03-20T10:10:56.475Z,17.60
2023-03-20T10:13:56.129Z,19.47
2023-03-20T10:16:39.647Z,18.70
2023-03-20T10:19:21.444Z,18.20
2023-03-20T10:21:53.937Z,18.50
2023-03-20T10:24:29.693Z,18.33
2023-03-20T10:27:04.405Z,18.73
2023-03-20T10:29:48.583Z,19.63
2023-03-20T10:32:24.669Z,19.87
2023-03-20T10:35:01.044Z,19.07
2023-03-20T10:37:45.404Z,19.60
2023-03-20T10:40:27.875Z,20.57
2023-03-20T10:43:00.057Z,20.50
2023-03-20T10:45:37.664Z,21.30
2023-03-20T10:48:16.123Z,22.07
2023-03-20T10:50:47.455Z,23.60
2023-03-20T10:53:25.344Z,23.50
2023-03-20T10:56:00.235Z,24.37
2023-03-20T10:58:31.845Z,22.60
2023-03-20T11:01:01.116Z,25.83
2023-03-20T11:03:32.864Z,25.10
2023-03-20T11:06:09.742Z,27.80
2023-03-20T11:08:41.419Z,26.33
2023-03-20T11:11:11.312Z,26.93
2023-03-20T11:13:41.540Z,27.33
2023-03-20T11:16:16.004Z,27.17
2023-03-20T11:18:49.348Z,28.93
2023-03-20T11:21:21.436Z,29.53
2023-03-20T11:23:54.846Z,29.77
2023-03-20T11:26:35.740Z,29.90
2023-03-20T11:29:07.662Z,29.30
2023-03-20T11:31:38.103Z,30.50
2023-03-20T11:34:26.896Z,26.27
2023-03-20T11:37:09.386Z,26.50
2023-03-20T11:39:40.571Z,26.10
2023-03-20T11:42:24.509Z,25.80
2023-03-20T11:44:59.363Z,25.17
2023-03-20T11:47:29.205Z,24.77
2023-03-20T11:50:02.832Z,26.07
2023-03-20T11:52:33.731Z,26.27
2023-03-20T11:55:06.768Z,26.37
2023-03-20T11:57:41.291Z,26.23
2023-03-20T12:00:21.092Z,20.63
2023-03-20T12:02:49.518Z,21.37
2023-03-20T12:05:31.576Z,20.80
2023-03-20T12:08:04.932Z,18.83
2023-03-20T12:10:39.588Z,21.90
2023-03-20T12:13:16.024Z,23.03
2023-03-20T12:15:48.680Z,22.77
2023-03-20T12:18:25.661Z,22.43
2023-03-20T12:21:06.802Z,22.60
2023-03-20T12:23:38.345Z,20.63
2023-03-20T12:26:13.690Z,17.00
2023-03-20T12:28:48.776Z,17.27
2023-03-20T12:31:24.926Z,17.67
2023-03-20T12:33:58.305Z,17.38
2023-03-20T12:36:33.325Z,16.88
2023-03-20T12:39:04.322Z,16.85
2023-03-20T12:41:41.550Z,16.58
2023-03-20T12:44:21.985Z,14.82
2023-03-20T12:46:58.682Z,16.40
2023-03-20T12:49:36.185Z,16.63
2023-03-20T12:52:16.389Z,16.65
2023-03-20T12:55:02.802Z,16.40
2023-03-20T12:57:40.330Z,17.02
2023-03-20T13:00:20.210Z,15.60
2023-03-20T13:03:03.648Z,14.77
2023-03-20T13:05:43.674Z,12.18
2023-03-20T13:08:38.336Z,12.25
2023-03-20T13:11:14.958Z,11.70
2023-03-20T13:13:54.901Z,15.32
2023-03-20T13:16:36.265Z,20.65
2023-03-20T13:19:12.675Z,20.45
2023-03-20T13:21:56.723Z,21.38
2023-03-20T13:24:36.401Z,21.00
2023-03-20T13:27:17.637Z,20.55
2023-03-20T13:29:53.685Z,15.23
2023-03-20T13:32:34.052Z,16.60
2023-03-20T13:35:24.865Z,17.90
2023-03-20T13:37:56.412Z,17.83
2023-03-20T13:40:30.016Z,18.40
2023-03-20T13:43:04.755Z,18.93
2023-03-20T13:45:37.774Z,18.87
2023-03-20T13:48:22.234Z,19.00
2023-03-20T13:50:55.973Z,16.10
2023-03-20T13:53:31.350Z,14.80
2023-03-20T13:56:11.946Z,14.63
2023-03-20T13:58:58.986Z,15.13
2023-03-20T14:01:37.318Z,15.30
2023-03-20T14:04:09.426Z,15.43
2023-03-20T14:07:01.297Z,15.93
2023-03-20T14:09:32.364Z,15.73
2023-03-20T14:12:07.861Z,15.53
2023-03-20T14:14:44.409Z,16.47
2023-03-20T14:17:21.876Z,16.73
2023-03-20T14:19:51.694Z,16.33
2023-03-20T14:22:22.053Z,17.13
2023-03-20T14:24:58.699Z,16.63
2023-03-20T14:27:43.764Z,18.57
2023-03-20T14:30:39.203Z,19.63
2023-03-20T14:33:09.005Z,19.83
2023-03-20T14:35:38.987Z,19.93
2023-03-20T14:38:24.472Z,20.80
2023-03-20T14:41:05.367Z,21.30
2023-03-20T14:43:56.931Z,19.33
2023-03-20T14:46:32.625Z,20.43
2023-03-20T14:49:16.812Z,19.80
2023-03-20T14:51:48.984Z,16.10
2023-03-20T14:54:29.009Z,13.53
2023-03-20T14:57:09.663Z,13.20
2023-03-20T14:59:39.571Z,12.10
2023-03-20T15:02:12.353Z,9.07
2023-03-20T15:04:42.993Z,7.77
2023-03-20T15:07:15.603Z,6.07
2023-03-20T15:09:49.502Z,4.57
2023-03-20T15:12:21.988Z,5.27
2023-03-20T15:14:56.401Z,5.13
2023-03-20T15:17:28.646Z,5.27
2023-03-20T15:20:04.528Z,6.10
2023-03-20T15:22:33.689Z,5.73
2023-03-20T15:25:01.836Z,6.20
2023-03-20T15:27:30.951Z,6.40
2023-03-20T15:30:03.611Z,6.70
2023-03-20T15:32:35.114Z,7.30
2023-03-20T15:35:06.276Z,7.17
2023-03-20T15:37:36.269Z,8.03
2023-03-20T15:40:12.667Z,7.60
2023-03-20T15:42:40.907Z,8.60
2023-03-20T15:45:28.602Z,7.90
2023-03-20T15:48:05.897Z,8.00
2023-03-20T15:50:42.389Z,9.03
2023-03-20T15:53:19.155Z,9.40
2023-03-20T15:55:52.390Z,8.67
2023-03-20T15:58:24.751Z,8.77
2023-03-20T16:00:54.847Z,8.70
2023-03-20T16:03:25.627Z,8.93
2023-03-20T16:05:54.611Z,8.07
2023-03-20T16:08:25.996Z,8.53
2023-03-20T16:10:58.286Z,7.77
2023-03-20T16:13:27.815Z,7.80
2023-03-20T16:15:57.552Z,8.60
2023-03-20T16:18:28.409Z,8.20
2023-03-20T16:21:07.635Z,8.77
2023-03-20T16:23:41.192Z,8.40
2023-03-20T16:26:14.156Z,9.33
2023-03-20T16:28:45.824Z,9.80
2023-03-20T16:31:21.539Z,10.43
2023-03-20T16:33:52.147Z,11.10
2023-03-20T16:36:27.653Z,11.47
2023-03-20T16:39:00.255Z,11.60
2023-03-20T16:41:32.075Z,11.80
2023-03-20T16:44:09.797Z,11.03
2023-03-20T16:46:58.198Z,11.10
2023-03-20T16:49:52.214Z,10.13
2023-03-20T16:52:27.686Z,9.90
2023-03-20T16:54:59.870Z,9.23
2023-03-20T16:57:32.809Z,10.40
2023-03-20T17:00:06.422Z,10.80
2023-03-20T17:02:39.079Z,11.13
2023-03-20T17:05:12.753Z,11.50
2023-03-20T17:07:42.726Z,11.17
2023-03-20T17:10:21.614Z,10.87
2023-03-20T17:12:51.791Z,11.00
2023-03-20T17:15:21.512Z,10.90
2023-03-20T17:17:52.021Z,11.73
2023-03-20T17:20:22.884Z,10.77
2023-03-20T17:22:51.190Z,10.07
2023-03-20T17:25:20.077Z,9.83
2023-03-20T17:27:52.757Z,11.37
2023-03-20T17:30:23.736Z,9.80
2023-03-20T17:32:53.434Z,10.40
2023-03-20T17:35:22.774Z,9.10
2023-03-20T17:37:54.353Z,10.93
2023-03-20T17:40:25.321Z,8.20
2023-03-20T17:42:53.966Z,7.80
2023-03-20T17:45:22.190Z,8.00
2023-03-20T17:47:51.761Z,8.40
2023-03-20T17:50:24.759Z,8.33
2023-03-20T17:52:53.848Z,8.80
2023-03-20T17:55:22.316Z,10.57
2023-03-20T17:57:50.544Z,12.13
2023-03-20T18:00:24.642Z,17.07
2023-03-20T18:02:53.753Z,18.30
2023-03-20T18:05:23.391Z,16.53
2023-03-20T18:07:51.608Z,23.97
2023-03-20T18:10:26.313Z,29.70
2023-03-20T18:12:55.781Z,21.93
2023-03-20T18:15:23.933Z,20.40
2023-03-20T18:17:52.931Z,20.20
2023-03-20T18:20:27.770Z,19.87
2023-03-20T18:22:56.742Z,20.67
2023-03-20T18:25:25.964Z,22.83
2023-03-20T18:27:54.867Z,25.50
2023-03-20T18:30:28.253Z,24.17
2023-03-20T18:32:56.857Z,23.07
2023-03-20T18:35:26.477Z,23.33
2023-03-20T18:37:54.717Z,24.03
2023-03-20T18:40:26.105Z,23.20
2023-03-20T18:42:55.967Z,27.83
2023-03-20T18:45:25.788Z,27.97
2023-03-20T18:47:55.165Z,24.60
2023-03-20T18:50:28.435Z,25.37
2023-03-20T18:52:57.814Z,25.40
2023-03-20T18:55:28.479Z,27.40
2023-03-20T18:57:57.364Z,27.07
2023-03-20T19:00:28.548Z,27.17
2023-03-20T19:02:59.333Z,28.83
2023-03-20T19:05:31.281Z,29.33
2023-03-20T19:07:59.966Z,27.80
2023-03-20T19:10:35.740Z,28.67
2023-03-20T19:13:05.285Z,27.37
2023-03-20T19:15:36.209Z,27.23
2023-03-20T19:18:08.222Z,28.10
2023-03-20T19:20:39.859Z,28.50
2023-03-20T19:23:09.924Z,27.83
2023-03-20T19:25:39.018Z,28.03
2023-03-20T19:28:21.737Z,29.20
2023-03-20T19:30:53.787Z,29.87
2023-03-20T19:33:22.260Z,30.57
2023-03-20T19:36:02.800Z,31.07
2023-03-20T19:38:32.887Z,31.53
2023-03-20T19:41:08.766Z,30.43
2023-03-20T19:43:51.459Z,32.57
2023-03-20T19:46:38.222Z,30.97
2023-03-20T19:49:17.238Z,31.23
2023-03-20T19:51:47.379Z,33.60
2023-03-20T19:54:19.022Z,33.57
2023-03-20T19:56:47.283Z,34.73
2023-03-20T19:59:16.902Z,34.60
2023-03-20T20:01:46.611Z,34.77
2023-03-20T20:04:15.474Z,35.97
2023-03-20T20:06:43.637Z,36.40
2023-03-20T20:09:16.008Z,37.20
2023-03-20T20:11:44.171Z,36.00
2023-03-20T20:14:14.788Z,38.13
2023-03-20T20:16:44.120Z,36.60
2023-03-20T20:19:15.257Z,33.63
2023-03-20T20:24:33.868Z,32.30
2023-03-20T20:27:16.236Z,31.03
2023-03-20T20:29:49.205Z,31.03
2023-03-20T20:32:18.840Z,31.93
2023-03-20T20:38:21.169Z,29.80
2023-03-20T20:40:28.112Z,29.57
2023-03-20T20:43:01.980Z,29.47
2023-03-20T20:45:31.781Z,29.80
2023-03-20T20:48:01.877Z,28.47
2023-03-20T20:50:31.873Z,29.87
2023-03-20T20:53:00.774Z,31.63
2023-03-20T20:55:31.178Z,30.93
2023-03-20T20:57:59.693Z,31.13
2023-03-20T21:00:45.549Z,30.60
2023-03-20T21:03:17.137Z,29.07
2023-03-20T21:05:45.389Z,27.43
2023-03-20T21:08:14.609Z,27.63
2023-03-20T21:10:46.879Z,26.93
2023-03-20T21:13:16.428Z,26.47
2023-03-20T21:15:45.674Z,24.97
2023-03-20T21:18:16.021Z,26.53
2023-03-20T21:20:44.862Z,25.47
2023-03-20T21:23:13.073Z,25.53
2023-03-20T21:25:47.882Z,25.47
2023-03-20T21:28:17.870Z,23.70
2023-03-20T21:31:16.260Z,22.73
2023-03-20T21:33:38.874Z,23.33
2023-03-20T21:36:08.362Z,23.63
2023-03-20T21:41:26.166Z,22.30
2023-03-20T21:43:56.219Z,21.93
2023-03-20T21:46:59.986Z,20.10
2023-03-20T21:50:01.478Z,22.03
2023-03-20T22:03:54.900Z,21.37
2023-03-20T22:09:59.045Z,22.40
2023-03-20T22:18:14.833Z,22.70
2023-03-20T22:21:13.407Z,24.17
2023-03-20T22:24:01.679Z,24.20
2023-03-20T22:38:00.849Z,25.17
2023-03-20T22:44:04.796Z,26.47
2023-03-20T22:46:05.585Z,27.03
2023-03-20T22:48:37.902Z,27.33
2023-03-20T22:51:08.884Z,27.77
2023-03-20T22:53:37.142Z,29.03
2023-03-20T22:56:06.864Z,27.37
2023-03-20T22:58:36.912Z,27.40
2023-03-20T23:01:05.821Z,27.70
2023-03-20T23:03:41.622Z,29.30
2023-03-20T23:06:21.353Z,27.97
2023-03-20T23:08:55.126Z,28.37
2023-03-20T23:11:28.817Z,29.43
2023-03-20T23:13:57.304Z,28.03
2023-03-20T23:16:25.631Z,28.70
2023-03-20T23:18:57.782Z,29.87
2023-03-20T23:21:27.974Z,27.03
2023-03-20T23:23:56.919Z,28.03
2023-03-20T23:26:25.066Z,29.77
2023-03-20T23:28:58.319Z,30.47
2023-03-20T23:31:27.968Z,29.40
2023-03-20T23:33:58.947Z,29.20
2023-03-20T23:36:36.356Z,28.63
2023-03-20T23:39:07.921Z,27.53
2023-03-20T23:42:08.345Z,29.43
2023-03-20T23:44:28.955Z,30.03
2023-03-20T23:46:57.738Z,29.27
2023-03-20T23:49:28.519Z,29.37
2023-03-20T23:51:58.948Z,31.37
2023-03-20T23:54:27.954Z,31.07
2023-03-20T23:56:56.748Z,30.93
2023-03-20T23:59:25.937Z,30.10
